createdAt,value
2019-02-06T00:02:22.895Z,15.70
2019-02-06T00:04:51.916Z,13.83
2019-02-06T00:07:20.920Z,13.90
2019-02-06T00:09:49.793Z,17.00
2019-02-06T00:12:18.990Z,15.57
2019-02-06T00:14:47.921Z,13.50
2019-02-06T00:17:16.853Z,12.20
2019-02-06T00:19:45.792Z,14.23
2019-02-06T00:22:14.671Z,12.87
2019-02-06T00:24:43.548Z,17.27
2019-02-06T00:27:12.334Z,13.27
2019-02-06T00:29:41.593Z,10.73
2019-02-06T00:32:10.859Z,14.47
2019-02-06T00:34:39.659Z,13.55
2019-02-06T00:37:08.529Z,14.97
2019-02-06T00:39:37.323Z,13.50
2019-02-06T00:42:06.446Z,13.70
2019-02-06T00:44:35.753Z,13.53
2019-02-06T00:47:04.698Z,13.17
2019-02-06T00:49:33.499Z,14.27
2019-02-06T00:52:02.380Z,15.40
2019-02-06T00:54:31.177Z,14.70
2019-02-06T00:56:59.967Z,16.73
2019-02-06T00:59:28.958Z,16.90
2019-02-06T01:01:58.058Z,17.57
2019-02-06T01:04:27.622Z,20.55
2019-02-06T01:06:57.436Z,22.52
2019-02-06T01:09:26.439Z,16.50
2019-02-06T01:11:55.237Z,22.67
2019-02-06T01:14:24.239Z,21.67
2019-02-06T01:16:53.188Z,19.00
2019-02-06T01:19:22.016Z,17.57
2019-02-06T01:21:50.880Z,19.70
2019-02-06T01:24:19.783Z,15.67
2019-02-06T01:26:48.766Z,18.00
2019-02-06T01:29:17.573Z,16.70
2019-02-06T01:31:46.927Z,21.33
2019-02-06T01:34:15.739Z,18.23
2019-02-06T01:36:44.600Z,19.30
2019-02-06T01:39:13.827Z,17.55
2019-02-06T01:41:42.851Z,18.70
2019-02-06T01:44:11.914Z,22.17
2019-02-06T01:46:40.782Z,22.10
2019-02-06T01:49:09.727Z,21.90
2019-02-06T01:51:38.787Z,23.03
2019-02-06T01:54:07.745Z,24.63
2019-02-06T01:56:36.591Z,20.63
2019-02-06T01:59:05.527Z,21.63
2019-02-06T02:01:34.407Z,21.53
2019-02-06T02:04:03.728Z,21.80
2019-02-06T02:06:32.668Z,19.63
2019-02-06T02:09:01.815Z,22.00
2019-02-06T02:11:30.787Z,22.30
2019-02-06T02:13:59.944Z,23.50
2019-02-06T02:16:30.084Z,20.62
2019-02-06T02:19:00.159Z,20.92
2019-02-06T02:21:29.138Z,23.60
2019-02-06T02:23:58.210Z,18.75
2019-02-06T02:26:27.038Z,17.65
2019-02-06T02:28:55.953Z,20.77
2019-02-06T02:31:24.802Z,21.47
2019-02-06T02:33:53.980Z,19.37
2019-02-06T02:36:22.885Z,19.57
2019-02-06T02:38:52.053Z,17.50
2019-02-06T02:41:21.099Z,16.93
2019-02-06T02:43:49.980Z,19.77
2019-02-06T02:46:19.078Z,18.57
2019-02-06T02:48:47.904Z,17.10
2019-02-06T02:51:17.100Z,17.53
2019-02-06T02:53:45.997Z,13.57
2019-02-06T02:56:14.908Z,17.40
2019-02-06T02:58:43.741Z,15.87
2019-02-06T03:01:49.863Z,16.63
2019-02-06T03:04:34.462Z,18.50
2019-02-06T03:07:03.453Z,20.57
2019-02-06T03:09:32.444Z,21.10
2019-02-06T03:12:01.984Z,23.40
2019-02-06T03:14:30.947Z,23.05
2019-02-06T03:17:03.174Z,23.60
2019-02-06T03:19:30.491Z,24.27
2019-02-06T03:21:59.427Z,22.00
2019-02-06T03:24:28.332Z,24.07
2019-02-06T03:26:57.183Z,22.75
2019-02-06T03:29:25.961Z,26.87
2019-02-06T03:31:54.770Z,23.13
2019-02-06T03:34:23.555Z,26.03
2019-02-06T03:36:52.414Z,24.93
2019-02-06T03:39:21.315Z,27.20
2019-02-06T03:41:50.393Z,27.57
2019-02-06T03:44:19.270Z,25.20
2019-02-06T03:46:48.130Z,28.07
2019-02-06T03:49:16.934Z,23.23
2019-02-06T03:51:45.843Z,26.03
2019-02-06T03:54:14.807Z,24.57
2019-02-06T03:56:43.678Z,28.97
2019-02-06T03:59:12.532Z,24.07
2019-02-06T04:01:41.491Z,23.70
2019-02-06T04:04:10.291Z,25.70
2019-02-06T04:06:39.108Z,25.90
2019-02-06T04:09:09.094Z,24.75
2019-02-06T04:11:37.983Z,25.00
2019-02-06T04:14:07.707Z,23.85
2019-02-06T04:16:36.548Z,24.40
2019-02-06T04:19:05.618Z,24.30
2019-02-06T04:21:34.556Z,21.37
2019-02-06T04:24:03.562Z,20.50
2019-02-06T04:26:32.457Z,22.10
2019-02-06T04:29:01.718Z,15.60
2019-02-06T04:31:30.529Z,16.37
2019-02-06T04:33:59.421Z,18.17
2019-02-06T04:36:28.314Z,16.87
2019-02-06T04:38:57.136Z,14.70
2019-02-06T04:41:26.004Z,16.50
2019-02-06T04:43:55.094Z,18.30
2019-02-06T04:46:23.890Z,17.23
2019-02-06T04:48:52.707Z,14.20
2019-02-06T04:51:21.541Z,13.30
2019-02-06T04:53:50.359Z,15.40
2019-02-06T04:56:19.270Z,14.67
2019-02-06T04:58:48.057Z,15.33
2019-02-06T05:01:17.231Z,15.50
2019-02-06T05:03:46.040Z,14.30
2019-02-06T05:06:15.097Z,13.67
2019-02-06T05:08:44.034Z,13.77
2019-02-06T05:11:12.937Z,14.10
2019-02-06T05:13:41.734Z,16.83
2019-02-06T05:16:10.605Z,17.53
2019-02-06T05:18:39.622Z,17.17
2019-02-06T05:21:08.411Z,16.43
2019-02-06T05:23:37.209Z,17.57
2019-02-06T05:26:06.186Z,18.55
2019-02-06T05:28:35.084Z,18.70
2019-02-06T05:31:03.961Z,14.83
2019-02-06T05:33:33.132Z,18.30
2019-02-06T05:36:01.933Z,16.57
2019-02-06T05:38:30.733Z,22.40
2019-02-06T05:40:59.534Z,17.60
2019-02-06T05:43:28.630Z,17.67
2019-02-06T05:45:57.489Z,18.17
2019-02-06T05:48:26.303Z,20.13
2019-02-06T05:50:55.182Z,18.70
2019-02-06T05:53:24.092Z,19.80
2019-02-06T05:55:52.915Z,20.53
2019-02-06T05:58:21.832Z,18.77
2019-02-06T06:00:50.888Z,18.80
2019-02-06T06:03:19.839Z,22.65
2019-02-06T06:05:49.229Z,19.67
2019-02-06T06:08:18.038Z,22.37
2019-02-06T06:10:46.987Z,23.57
2019-02-06T06:13:18.376Z,22.63
2019-02-06T06:15:46.461Z,21.67
2019-02-06T06:18:15.542Z,17.95
2019-02-06T06:20:44.417Z,20.87
2019-02-06T06:23:13.293Z,20.63
2019-02-06T06:25:42.277Z,21.00
2019-02-06T06:28:11.238Z,20.30
2019-02-06T06:30:40.056Z,18.50
2019-02-06T06:33:08.862Z,20.00
2019-02-06T06:35:37.755Z,17.73
2019-02-06T06:38:07.170Z,18.27
2019-02-06T06:40:36.046Z,19.63
2019-02-06T06:43:05.326Z,16.80
2019-02-06T06:45:34.124Z,21.77
2019-02-06T06:48:02.914Z,18.47
2019-02-06T06:50:31.727Z,17.00
2019-02-06T06:53:00.597Z,17.70
2019-02-06T06:55:29.597Z,20.03
2019-02-06T06:57:58.400Z,17.43
2019-02-06T07:00:28.782Z,19.73
2019-02-06T07:02:57.830Z,16.20
2019-02-06T07:05:26.777Z,18.87
2019-02-06T07:07:56.033Z,18.42
2019-02-06T07:10:25.363Z,16.67
2019-02-06T07:12:54.451Z,16.40
2019-02-06T07:15:25.569Z,14.07
2019-02-06T07:17:54.600Z,17.67
2019-02-06T07:20:23.750Z,18.83
2019-02-06T07:22:52.651Z,17.93
2019-02-06T07:25:22.093Z,16.70
2019-02-06T07:27:51.038Z,18.23
2019-02-06T07:30:22.715Z,14.90
2019-02-06T07:32:52.316Z,16.70
2019-02-06T07:35:21.294Z,14.40
2019-02-06T07:37:50.156Z,16.23
2019-02-06T07:40:19.525Z,17.97
2019-02-06T07:42:48.391Z,17.30
2019-02-06T07:45:17.560Z,18.10
2019-02-06T07:47:46.636Z,21.00
2019-02-06T07:50:19.265Z,19.37
2019-02-06T07:52:48.148Z,20.00
2019-02-06T07:55:17.566Z,19.73
2019-02-06T07:57:46.500Z,25.47
2019-02-06T08:00:15.443Z,26.53
2019-02-06T08:02:44.958Z,24.05
2019-02-06T08:05:16.215Z,17.45
2019-02-06T08:07:45.155Z,22.80
2019-02-06T08:10:23.535Z,21.12
2019-02-06T08:12:52.772Z,21.43
2019-02-06T08:15:21.842Z,20.33
2019-02-06T08:17:50.717Z,26.47
2019-02-06T08:20:20.205Z,22.03
2019-02-06T08:22:49.234Z,21.20
2019-02-06T08:25:18.438Z,22.07
2019-02-06T08:27:47.586Z,20.40
2019-02-06T08:30:30.872Z,20.83
2019-02-06T08:32:59.845Z,22.97
2019-02-06T08:35:28.717Z,19.82
2019-02-06T08:37:57.768Z,22.90
2019-02-06T08:40:27.124Z,22.37
2019-02-06T08:42:56.022Z,20.05
2019-02-06T08:45:24.974Z,21.75
2019-02-06T08:47:54.108Z,18.20
2019-02-06T08:50:23.332Z,21.03
2019-02-06T08:52:52.571Z,21.83
2019-02-06T08:55:23.352Z,20.13
2019-02-06T08:57:52.697Z,21.95
2019-02-06T09:00:26.797Z,18.77
2019-02-06T09:02:55.860Z,19.40
2019-02-06T09:05:25.192Z,19.97
2019-02-06T09:07:54.237Z,23.27
2019-02-06T09:10:24.046Z,19.70
2019-02-06T09:12:53.863Z,21.03
2019-02-06T09:15:22.807Z,18.92
2019-02-06T09:17:51.755Z,17.30
2019-02-06T09:20:22.825Z,21.70
2019-02-06T09:22:51.886Z,20.23
2019-02-06T09:25:21.481Z,18.33
2019-02-06T09:27:50.514Z,18.13
2019-02-06T09:30:21.605Z,19.73
2019-02-06T09:32:50.625Z,18.77
2019-02-06T09:35:19.712Z,19.40
2019-02-06T09:37:48.668Z,19.00
2019-02-06T09:40:20.083Z,18.63
2019-02-06T09:42:49.050Z,15.83
2019-02-06T09:45:18.183Z,16.50
2019-02-06T09:47:47.839Z,16.02
2019-02-06T09:50:19.897Z,19.00
2019-02-06T09:52:48.921Z,14.10
2019-02-06T09:55:18.008Z,17.62
2019-02-06T09:57:46.903Z,15.58
2019-02-06T10:00:19.276Z,16.60
2019-02-06T10:02:48.101Z,17.73
2019-02-06T10:05:17.137Z,17.47
2019-02-06T10:07:46.322Z,16.00
2019-02-06T10:10:17.667Z,16.10
2019-02-06T10:12:46.606Z,18.80
2019-02-06T10:15:19.015Z,16.50
2019-02-06T10:17:48.637Z,16.37
2019-02-06T10:20:19.729Z,15.85
2019-02-06T10:22:48.856Z,17.10
2019-02-06T10:25:17.786Z,16.35
2019-02-06T10:27:46.726Z,16.62
2019-02-06T10:30:25.888Z,17.10
2019-02-06T10:32:54.941Z,18.50
2019-02-06T10:35:23.799Z,16.23
2019-02-06T10:37:52.665Z,15.17
2019-02-06T10:40:21.719Z,16.53
2019-02-06T10:42:50.606Z,16.00
2019-02-06T10:45:21.007Z,16.10
2019-02-06T10:47:50.399Z,14.80
2019-02-06T10:50:22.066Z,13.85
2019-02-06T10:52:50.929Z,15.23
2019-02-06T10:55:20.141Z,11.90
2019-02-06T10:57:49.711Z,17.07
2019-02-06T11:00:25.185Z,13.83
2019-02-06T11:02:54.426Z,13.87
2019-02-06T11:05:23.287Z,14.30
2019-02-06T11:07:52.077Z,14.57
2019-02-06T11:10:22.569Z,15.00
2019-02-06T11:12:51.522Z,17.33
2019-02-06T11:15:21.000Z,16.70
2019-02-06T11:17:50.301Z,14.73
2019-02-06T11:20:19.942Z,13.30
2019-02-06T11:22:48.903Z,13.10
2019-02-06T11:25:18.224Z,14.30
2019-02-06T11:27:47.183Z,17.27
2019-02-06T11:30:22.095Z,15.10
2019-02-06T11:32:51.661Z,13.93
2019-02-06T11:35:20.752Z,13.90
2019-02-06T11:37:50.735Z,12.05
2019-02-06T11:40:21.620Z,11.57
2019-02-06T11:42:51.107Z,12.43
2019-02-06T11:45:29.629Z,12.60
2019-02-06T11:47:58.702Z,14.20
2019-02-06T11:50:33.314Z,11.07
2019-02-06T11:53:02.243Z,15.47
2019-02-06T11:55:31.318Z,13.60
2019-02-06T11:58:00.206Z,14.10
2019-02-06T12:00:36.649Z,12.90
2019-02-06T12:03:05.602Z,13.80
2019-02-06T12:05:34.521Z,13.20
2019-02-06T12:08:03.385Z,13.17
2019-02-06T12:10:32.319Z,14.78
2019-02-06T12:13:01.254Z,14.20
2019-02-06T12:15:30.110Z,12.35
2019-02-06T12:17:58.976Z,13.07
2019-02-06T12:20:27.921Z,14.30
2019-02-06T12:22:56.846Z,14.70
2019-02-06T12:25:25.802Z,13.68
2019-02-06T12:27:55.401Z,12.73
2019-02-06T12:30:27.612Z,11.17
2019-02-06T12:32:56.569Z,13.60
2019-02-06T12:35:25.522Z,12.40
2019-02-06T12:37:54.462Z,13.83
2019-02-06T12:40:23.604Z,13.53
2019-02-06T12:42:52.653Z,12.07
2019-02-06T12:45:23.059Z,13.85
2019-02-06T12:47:52.887Z,13.72
2019-02-06T12:50:22.938Z,13.65
2019-02-06T12:52:52.743Z,13.65
2019-02-06T12:55:25.188Z,12.10
2019-02-06T12:57:54.334Z,11.93
2019-02-06T13:00:28.501Z,12.23
2019-02-06T13:03:00.138Z,14.03
2019-02-06T13:05:28.893Z,14.37
2019-02-06T13:07:58.070Z,14.58
2019-02-06T13:10:33.905Z,11.50
2019-02-06T13:12:57.512Z,15.57
2019-02-06T13:15:26.582Z,13.47
2019-02-06T13:17:55.884Z,12.17
2019-02-06T13:20:26.799Z,12.73
2019-02-06T13:22:55.732Z,12.70
2019-02-06T13:25:25.754Z,11.57
2019-02-06T13:27:54.635Z,11.43
2019-02-06T13:30:25.937Z,16.30
2019-02-06T13:32:54.858Z,13.20
2019-02-06T13:35:23.801Z,15.77
2019-02-06T13:37:53.646Z,14.40
2019-02-06T13:40:23.762Z,15.50
2019-02-06T13:42:52.700Z,13.70
2019-02-06T13:45:26.685Z,13.50
2019-02-06T13:47:55.614Z,12.40
2019-02-06T13:50:25.377Z,13.30
2019-02-06T13:52:54.441Z,12.40
2019-02-06T13:55:24.264Z,13.30
2019-02-06T13:57:53.207Z,12.07
2019-02-06T14:00:27.930Z,14.07
2019-02-06T14:02:56.982Z,12.27
2019-02-06T14:05:27.950Z,13.43
2019-02-06T14:07:59.130Z,12.00
2019-02-06T14:10:28.808Z,13.80
2019-02-06T14:12:57.743Z,13.63
2019-02-06T14:15:29.458Z,12.63
2019-02-06T14:17:58.419Z,12.53
2019-02-06T14:20:27.861Z,13.53
2019-02-06T14:23:00.057Z,12.10
2019-02-06T14:25:35.564Z,12.47
2019-02-06T14:28:13.570Z,13.00
2019-02-06T14:31:15.446Z,11.80
2019-02-06T14:34:12.303Z,11.43
2019-02-06T14:37:43.530Z,10.48
2019-02-06T14:40:43.294Z,11.50
2019-02-06T14:43:26.243Z,11.37
2019-02-06T14:46:33.699Z,11.63
2019-02-06T14:49:25.635Z,10.70
2019-02-06T14:52:34.458Z,12.35
2019-02-06T14:55:28.629Z,11.63
2019-02-06T14:58:07.468Z,11.93
2019-02-06T15:01:00.123Z,11.17
2019-02-06T15:03:47.275Z,10.27
2019-02-06T15:06:56.382Z,9.90
2019-02-06T15:09:56.242Z,10.93
2019-02-06T15:13:00.956Z,9.67
2019-02-06T15:15:55.161Z,10.47
2019-02-06T15:18:53.050Z,10.10
2019-02-06T15:21:56.768Z,10.93
2019-02-06T15:25:04.921Z,12.03
2019-02-06T15:28:14.584Z,11.03
2019-02-06T15:31:12.609Z,11.03
2019-02-06T15:34:21.273Z,9.77
2019-02-06T15:37:18.998Z,10.17
2019-02-06T15:40:27.623Z,9.23
2019-02-06T15:43:03.192Z,9.20
2019-02-06T15:46:17.622Z,8.40
2019-02-06T15:49:06.957Z,8.50
2019-02-06T15:52:00.207Z,8.60
2019-02-06T15:55:28.278Z,8.73
2019-02-06T15:58:54.003Z,10.20
2019-02-06T16:01:44.230Z,8.70
2019-02-06T16:04:34.873Z,9.53
2019-02-06T16:07:53.250Z,9.57
2019-02-06T16:10:41.590Z,8.60
2019-02-06T16:13:18.507Z,9.40
2019-02-06T16:16:13.246Z,10.00
2019-02-06T16:19:07.077Z,8.83
2019-02-06T16:21:58.169Z,8.37
2019-02-06T16:24:51.606Z,9.13
2019-02-06T16:27:37.723Z,7.72
2019-02-06T16:30:19.181Z,9.13
2019-02-06T16:33:28.877Z,7.87
2019-02-06T16:36:50.311Z,9.03
2019-02-06T16:39:47.667Z,7.67
2019-02-06T16:42:34.070Z,8.20
2019-02-06T16:45:39.525Z,8.30
2019-02-06T16:48:52.696Z,9.37
2019-02-06T16:51:39.281Z,9.20
2019-02-06T16:54:52.562Z,10.00
2019-02-06T16:58:03.835Z,10.03
2019-02-06T17:01:00.934Z,9.33
2019-02-06T17:04:01.381Z,7.78
2019-02-06T17:07:10.444Z,9.07
2019-02-06T17:10:14.743Z,8.03
2019-02-06T17:13:27.993Z,7.70
2019-02-06T17:16:24.688Z,6.57
2019-02-06T17:19:17.428Z,9.60
2019-02-06T17:22:45.718Z,9.07
2019-02-06T17:25:45.157Z,10.67
2019-02-06T17:28:20.892Z,9.80
2019-02-06T17:31:24.051Z,8.43
2019-02-06T17:34:31.217Z,10.53
2019-02-06T17:37:31.907Z,10.23
2019-02-06T17:40:23.808Z,9.83
2019-02-06T17:43:03.744Z,10.40
2019-02-06T17:46:12.004Z,12.40
2019-02-06T17:49:26.359Z,11.97
2019-02-06T17:52:17.825Z,10.43
2019-02-06T17:55:19.072Z,9.40
2019-02-06T17:57:49.071Z,10.37
2019-02-06T18:00:28.429Z,10.03
2019-02-06T18:02:58.439Z,11.70
2019-02-06T18:05:27.310Z,10.13
2019-02-06T18:07:56.439Z,12.20
2019-02-06T18:10:25.603Z,11.57
2019-02-06T18:12:54.560Z,11.10
2019-02-06T18:15:23.542Z,10.67
2019-02-06T18:17:52.334Z,10.40
2019-02-06T18:20:21.290Z,12.73
2019-02-06T18:22:50.180Z,14.50
2019-02-06T18:25:19.440Z,11.73
2019-02-06T18:27:48.352Z,14.30
2019-02-06T18:30:19.144Z,15.07
2019-02-06T18:32:48.096Z,15.98
2019-02-06T18:35:17.641Z,14.60
2019-02-06T18:37:49.660Z,15.07
2019-02-06T18:40:19.484Z,16.00
2019-02-06T18:42:48.858Z,14.87
2019-02-06T18:45:18.299Z,17.53
2019-02-06T18:47:47.842Z,18.10
2019-02-06T18:50:19.920Z,16.67
2019-02-06T18:52:49.057Z,14.73
2019-02-06T18:55:17.991Z,14.90
2019-02-06T18:57:47.029Z,18.17
2019-02-06T19:00:20.348Z,19.60
2019-02-06T19:02:49.298Z,20.10
2019-02-06T19:05:19.681Z,16.20
2019-02-06T19:07:48.617Z,21.80
2019-02-06T19:10:19.260Z,25.55
2019-02-06T19:12:50.695Z,16.10
2019-02-06T19:15:18.946Z,16.20
2019-02-06T19:17:48.448Z,16.10
2019-02-06T19:20:17.851Z,15.27
2019-02-06T19:22:46.833Z,20.07
2019-02-06T19:25:15.898Z,16.67
2019-02-06T19:27:44.852Z,18.53
2019-02-06T19:30:23.678Z,19.27
2019-02-06T19:32:52.752Z,17.63
2019-02-06T19:35:21.613Z,18.63
2019-02-06T19:37:50.483Z,18.30
2019-02-06T19:40:19.450Z,17.67
2019-02-06T19:42:58.788Z,14.23
2019-02-06T19:45:18.952Z,14.18
2019-02-06T19:47:48.167Z,14.13
2019-02-06T19:50:26.129Z,17.10
2019-02-06T19:52:56.161Z,16.63
2019-02-06T19:55:25.105Z,16.90
2019-02-06T19:57:53.984Z,16.80
2019-02-06T20:00:25.947Z,15.27
2019-02-06T20:02:54.774Z,14.70
2019-02-06T20:05:23.983Z,17.90
2019-02-06T20:07:53.142Z,37.47
2019-02-06T20:10:24.724Z,22.17
2019-02-06T20:12:53.669Z,19.20
2019-02-06T20:15:22.634Z,16.90
2019-02-06T20:17:51.583Z,16.37
2019-02-06T20:20:21.554Z,15.35
2019-02-06T20:22:50.671Z,18.13
2019-02-06T20:25:19.944Z,18.32
2019-02-06T20:27:48.994Z,19.50
2019-02-06T20:30:20.549Z,20.40
2019-02-06T20:32:49.509Z,18.90
2019-02-06T20:35:18.472Z,22.00
2019-02-06T20:37:47.417Z,17.50
2019-02-06T20:40:21.897Z,18.40
2019-02-06T20:42:50.932Z,20.30
2019-02-06T20:45:19.986Z,21.23
2019-02-06T20:47:48.927Z,17.93
2019-02-06T20:50:20.501Z,17.00
2019-02-06T20:52:49.405Z,16.40
2019-02-06T20:55:19.862Z,21.37
2019-02-06T20:57:49.250Z,22.00
2019-02-06T21:00:20.936Z,20.50
2019-02-06T21:02:49.912Z,20.60
2019-02-06T21:05:18.773Z,18.63
2019-02-06T21:07:47.644Z,22.47
2019-02-06T21:10:19.074Z,18.67
2019-02-06T21:12:47.965Z,18.20
2019-02-06T21:15:17.111Z,19.40
2019-02-06T21:17:46.262Z,16.30
2019-02-06T21:20:17.681Z,17.60
2019-02-06T21:22:46.630Z,15.77
2019-02-06T21:25:17.103Z,21.80
2019-02-06T21:27:46.350Z,19.40
2019-02-06T21:30:17.880Z,20.60
2019-02-06T21:32:46.799Z,19.50
2019-02-06T21:35:15.662Z,15.38
2019-02-06T21:37:44.651Z,19.43
2019-02-06T21:40:20.326Z,18.80
2019-02-06T21:42:49.798Z,20.33
2019-02-06T21:45:18.724Z,21.23
2019-02-06T21:47:47.785Z,18.53
2019-02-06T21:50:18.013Z,19.63
2019-02-06T21:52:46.997Z,18.80
2019-02-06T21:55:17.044Z,21.45
2019-02-06T21:57:46.035Z,20.43
2019-02-06T22:02:37.945Z,17.80
2019-02-06T22:05:07.246Z,22.37
2019-02-06T22:07:36.034Z,20.30
2019-02-06T22:10:06.602Z,20.67
2019-02-06T22:12:35.491Z,17.57
2019-02-06T22:15:07.061Z,21.33
2019-02-06T22:17:35.864Z,19.00
2019-02-06T22:20:05.587Z,21.75
2019-02-06T22:22:34.448Z,18.47
2019-02-06T22:25:03.693Z,20.20
2019-02-06T22:27:32.489Z,17.50
2019-02-06T22:30:01.293Z,19.05
2019-02-06T22:32:30.239Z,22.50
2019-02-06T22:34:59.046Z,20.77
2019-02-06T22:37:27.849Z,24.07
2019-02-06T22:39:57.032Z,22.70
2019-02-06T22:42:25.822Z,21.15
2019-02-06T22:44:54.652Z,15.90
2019-02-06T22:47:23.442Z,20.67
2019-02-06T22:49:52.338Z,21.50
2019-02-06T22:52:23.008Z,20.53
2019-02-06T22:54:51.922Z,23.20
2019-02-06T22:57:20.714Z,18.80
2019-02-06T22:59:49.618Z,18.87
2019-02-06T23:02:18.597Z,20.10
2019-02-06T23:04:47.423Z,23.77
2019-02-06T23:07:16.370Z,18.87
2019-02-06T23:09:45.357Z,14.80
2019-02-06T23:12:14.307Z,17.40
2019-02-06T23:14:43.275Z,16.73
2019-02-06T23:17:12.136Z,17.57
2019-02-06T23:19:40.932Z,18.63
2019-02-06T23:22:09.744Z,17.90
2019-02-06T23:24:38.618Z,21.23
2019-02-06T23:27:07.420Z,17.57
2019-02-06T23:29:36.354Z,19.10
2019-02-06T23:32:05.807Z,18.77
2019-02-06T23:34:34.683Z,18.87
2019-02-06T23:37:03.659Z,19.60
2019-02-06T23:39:32.609Z,17.93
2019-02-06T23:42:01.562Z,16.80
2019-02-06T23:44:30.357Z,18.50
2019-02-06T23:46:59.238Z,21.00
2019-02-06T23:49:28.075Z,17.50
2019-02-06T23:51:56.969Z,16.83
2019-02-06T23:54:25.905Z,15.20
2019-02-06T23:56:55.089Z,17.97
2019-02-06T23:59:25.066Z,17.80
